createdAt,value
2023-02-02T01:55:41.716Z,5.80
2023-02-02T01:58:29.173Z,5.70
2023-02-02T02:07:10.834Z,5.70
2023-02-02T02:12:57.736Z,5.60
2023-02-02T02:42:07.549Z,5.70
2023-02-02T03:06:14.352Z,5.50
2023-02-02T03:09:09.764Z,5.50
2023-02-02T03:32:32.639Z,5.40
2023-02-02T03:59:19.512Z,5.40
2023-02-02T05:02:47.593Z,5.40
2023-02-02T06:16:18.655Z,5.70
2023-02-02T06:18:45.564Z,5.80
2023-02-02T06:21:12.542Z,5.80
2023-02-02T06:23:45.568Z,5.70
2023-02-02T06:26:13.724Z,5.70
2023-02-02T06:28:41.039Z,5.70
2023-02-02T06:31:10.134Z,5.70
2023-02-02T06:33:37.508Z,5.70
2023-02-02T06:36:06.238Z,5.70
2023-02-02T06:38:33.425Z,5.60
2023-02-02T06:41:01.194Z,5.60
2023-02-02T06:43:31.236Z,5.60
2023-02-02T06:45:58.647Z,5.60
2023-02-02T06:48:26.896Z,5.60
2023-02-02T06:50:56.562Z,5.70
2023-02-02T06:53:23.532Z,5.50
2023-02-02T06:55:57.556Z,5.60
2023-02-02T06:58:24.617Z,5.50
2023-02-02T07:00:51.589Z,5.50
2023-02-02T07:03:21.227Z,5.50
2023-02-02T07:05:51.382Z,5.40
2023-02-02T07:08:18.326Z,5.50
2023-02-02T07:11:14.156Z,5.30
2023-02-02T07:13:32.217Z,5.50
2023-02-02T07:15:59.173Z,5.50
2023-02-02T07:18:26.419Z,5.50
2023-02-02T07:20:53.417Z,5.50
2023-02-02T07:23:20.383Z,5.50
2023-02-02T07:25:47.168Z,5.60
2023-02-02T07:28:13.952Z,5.60
2023-02-02T07:30:40.878Z,5.60
2023-02-02T07:33:07.797Z,5.70
2023-02-02T07:35:35.217Z,5.80
2023-02-02T07:38:02.213Z,5.90
2023-02-02T07:40:29.052Z,5.90
2023-02-02T07:42:56.212Z,6.10
2023-02-02T07:45:25.558Z,6.20
2023-02-02T07:48:01.123Z,6.30
2023-02-02T07:50:29.482Z,6.30
2023-02-02T07:52:56.454Z,6.40
2023-02-02T07:55:23.516Z,6.40
2023-02-02T07:57:54.335Z,6.40
2023-02-02T08:00:22.106Z,6.50
2023-02-02T08:02:49.574Z,6.60
2023-02-02T08:05:16.779Z,6.70
2023-02-02T08:07:44.899Z,6.80
2023-02-02T08:10:12.256Z,7.00
2023-02-02T08:12:39.406Z,6.90
2023-02-02T08:15:07.717Z,7.00
2023-02-02T08:17:34.776Z,7.00
2023-02-02T08:20:01.685Z,7.10
2023-02-02T08:22:30.296Z,7.20
2023-02-02T08:24:57.204Z,7.20
2023-02-02T08:27:23.988Z,7.30
2023-02-02T08:29:50.920Z,7.40
2023-02-02T08:32:17.867Z,7.40
2023-02-02T08:34:44.810Z,7.50
2023-02-02T08:37:14.372Z,7.50
2023-02-02T08:39:41.487Z,7.60
2023-02-02T08:42:08.383Z,7.70
2023-02-02T08:45:00.307Z,7.80
2023-02-02T08:47:22.166Z,7.70
2023-02-02T08:49:49.271Z,7.80
2023-02-02T08:52:16.250Z,7.80
2023-02-02T08:54:43.206Z,7.90
2023-02-02T08:57:10.159Z,8.00
2023-02-02T08:59:37.120Z,8.10
2023-02-02T09:02:03.946Z,8.10
2023-02-02T09:04:30.949Z,8.00
2023-02-02T09:06:59.158Z,8.10
2023-02-02T09:09:26.233Z,8.10
2023-02-02T09:11:53.275Z,8.10
2023-02-02T09:14:20.172Z,8.20
2023-02-02T09:16:47.193Z,8.30
2023-02-02T09:19:14.819Z,8.30
2023-02-02T09:21:41.749Z,8.40
2023-02-02T09:24:11.516Z,8.50
2023-02-02T09:26:40.266Z,8.40
2023-02-02T09:29:14.083Z,8.40
2023-02-02T09:31:41.416Z,8.40
2023-02-02T09:34:11.117Z,8.50
2023-02-02T09:36:39.787Z,8.50
2023-02-02T09:39:08.264Z,8.60
2023-02-02T09:41:38.347Z,8.70
2023-02-02T09:44:36.453Z,8.70
2023-02-02T09:47:09.145Z,8.80
2023-02-02T09:49:43.179Z,8.90
2023-02-02T09:52:18.693Z,9.00
2023-02-02T09:54:48.515Z,9.10
2023-02-02T09:57:23.597Z,9.20
2023-02-02T09:59:52.145Z,9.10
2023-02-02T10:02:27.317Z,9.10
2023-02-02T10:05:22.237Z,9.20
2023-02-02T10:07:54.328Z,9.30
2023-02-02T10:10:38.054Z,9.20
2023-02-02T10:13:16.108Z,9.30
2023-02-02T10:16:03.583Z,9.30
2023-02-02T10:18:46.738Z,9.30
2023-02-02T10:21:54.070Z,9.50
2023-02-02T10:24:24.447Z,9.60
2023-02-02T10:27:00.546Z,9.70
2023-02-02T10:30:12.367Z,9.80
2023-02-02T10:33:02.019Z,9.90
2023-02-02T10:35:42.951Z,10.00
2023-02-02T10:38:24.967Z,10.10
2023-02-02T10:41:06.880Z,10.00
2023-02-02T10:44:00.227Z,9.70
2023-02-02T10:46:35.720Z,9.50
2023-02-02T10:49:34.845Z,9.20
2023-02-02T10:52:18.492Z,9.00
2023-02-02T10:55:13.388Z,8.80
2023-02-02T10:57:59.086Z,8.60
2023-02-02T11:00:36.741Z,8.40
2023-02-02T11:03:07.420Z,8.10
2023-02-02T11:05:53.438Z,8.10
2023-02-02T11:08:28.229Z,8.00
2023-02-02T11:10:58.280Z,8.10
2023-02-02T11:13:30.580Z,8.10
2023-02-02T11:16:16.177Z,8.20
2023-02-02T11:18:44.575Z,8.30
2023-02-02T11:21:19.241Z,8.30
2023-02-02T11:24:19.424Z,8.60
2023-02-02T11:26:52.133Z,8.50
2023-02-02T11:29:26.678Z,8.50
2023-02-02T11:31:53.792Z,8.50
2023-02-02T11:34:27.398Z,8.50
2023-02-02T11:37:24.986Z,8.60
2023-02-02T11:39:53.906Z,8.60
2023-02-02T11:42:23.639Z,8.60
2023-02-02T11:44:59.672Z,8.70
2023-02-02T11:47:33.340Z,8.80
2023-02-02T11:50:04.011Z,8.70
2023-02-02T11:52:33.143Z,8.70
2023-02-02T11:55:09.191Z,8.70
2023-02-02T11:58:00.119Z,8.70
2023-02-02T12:00:31.256Z,8.70
2023-02-02T12:02:59.115Z,8.70
2023-02-02T12:05:25.967Z,8.80
2023-02-02T12:07:53.017Z,8.80
2023-02-02T12:10:27.999Z,8.90
2023-02-02T12:13:31.817Z,8.80
2023-02-02T12:16:32.633Z,8.90
2023-02-02T12:19:41.179Z,9.10
2023-02-02T12:22:36.299Z,9.20
2023-02-02T12:25:36.440Z,9.20
2023-02-02T12:28:15.569Z,9.10
2023-02-02T12:31:26.854Z,9.20
2023-02-02T12:34:21.253Z,9.30
2023-02-02T12:37:11.656Z,9.30
2023-02-02T12:39:47.372Z,9.40
2023-02-02T12:42:32.138Z,9.50
2023-02-02T12:45:08.170Z,9.60
2023-02-02T12:47:56.885Z,9.60
2023-02-02T12:50:28.958Z,9.60
2023-02-02T12:53:13.303Z,9.60
2023-02-02T12:55:46.884Z,9.60
2023-02-02T12:58:41.028Z,9.40
2023-02-02T13:01:31.865Z,9.30
2023-02-02T13:04:42.755Z,9.20
2023-02-02T13:07:32.738Z,9.10
2023-02-02T13:10:18.535Z,9.10
2023-02-02T13:12:54.147Z,9.00
2023-02-02T13:15:24.258Z,9.00
2023-02-02T13:18:00.986Z,8.90
2023-02-02T13:20:51.296Z,8.80
2023-02-02T13:23:27.051Z,8.80
2023-02-02T13:26:00.171Z,8.80
2023-02-02T13:28:53.521Z,8.90
2023-02-02T13:31:28.419Z,8.70
2023-02-02T13:34:15.313Z,8.70
2023-02-02T13:36:47.594Z,8.70
2023-02-02T13:39:29.963Z,8.70
2023-02-02T13:41:57.202Z,8.80
2023-02-02T13:44:26.091Z,8.90
2023-02-02T13:47:03.795Z,8.80
2023-02-02T13:49:40.804Z,8.80
2023-02-02T13:52:35.631Z,8.90
2023-02-02T13:55:09.501Z,8.90
2023-02-02T13:58:07.093Z,8.80
2023-02-02T14:00:36.305Z,8.90
2023-02-02T14:03:23.605Z,8.90
2023-02-02T14:06:24.560Z,8.90
2023-02-02T14:08:59.036Z,9.00
2023-02-02T14:11:31.145Z,9.00
2023-02-02T14:14:39.008Z,8.90
2023-02-02T14:17:27.266Z,9.00
2023-02-02T14:20:03.630Z,9.10
2023-02-02T14:22:47.735Z,9.10
2023-02-02T14:25:30.427Z,9.10
2023-02-02T14:27:59.583Z,9.00
2023-02-02T14:30:35.445Z,9.00
2023-02-02T14:33:22.001Z,8.90
2023-02-02T14:35:48.882Z,8.90
2023-02-02T14:38:52.842Z,8.90
2023-02-02T14:42:18.223Z,8.90
2023-02-02T14:45:24.449Z,8.90
2023-02-02T14:47:55.494Z,8.90
2023-02-02T14:50:28.541Z,8.80
2023-02-02T14:53:34.415Z,8.70
2023-02-02T14:56:12.134Z,8.70
2023-02-02T14:58:46.870Z,8.60
2023-02-02T15:01:25.812Z,8.70
2023-02-02T15:03:55.744Z,8.70
2023-02-02T15:06:35.911Z,8.60
2023-02-02T15:09:26.610Z,8.60
2023-02-02T15:12:02.630Z,8.60
2023-02-02T15:14:35.625Z,8.70
2023-02-02T15:17:16.585Z,8.70
2023-02-02T15:19:48.313Z,8.70
2023-02-02T15:22:56.925Z,8.70
2023-02-02T15:25:41.375Z,8.50
2023-02-02T15:28:34.127Z,8.30
2023-02-02T15:31:47.403Z,8.10
2023-02-02T15:34:20.796Z,8.00
2023-02-02T15:36:51.475Z,7.90
2023-02-02T15:39:33.088Z,7.90
2023-02-02T15:42:21.809Z,7.90
2023-02-02T15:44:48.664Z,7.90
2023-02-02T15:47:30.207Z,7.80
2023-02-02T15:49:57.313Z,7.80
2023-02-02T15:52:35.485Z,7.80
2023-02-02T15:55:02.630Z,7.80
2023-02-02T15:57:37.710Z,7.80
2023-02-02T16:00:31.544Z,7.70
2023-02-02T16:03:14.199Z,7.70
2023-02-02T16:05:43.809Z,7.60
2023-02-02T16:08:24.615Z,7.50
2023-02-02T16:11:23.242Z,7.50
2023-02-02T16:14:13.007Z,7.40
2023-02-02T16:16:40.711Z,7.40
2023-02-02T16:19:26.711Z,7.20
2023-02-02T16:22:07.296Z,7.20
2023-02-02T16:24:37.184Z,7.20
2023-02-02T16:27:07.301Z,7.10
2023-02-02T16:29:35.542Z,7.10
2023-02-02T16:32:04.248Z,7.10
2023-02-02T16:34:40.670Z,7.00
2023-02-02T16:37:39.973Z,6.90
2023-02-02T16:40:37.903Z,6.90
2023-02-02T16:43:29.408Z,6.90
2023-02-02T16:45:59.283Z,6.80
2023-02-02T16:48:34.511Z,6.80
2023-02-02T16:51:16.620Z,6.80
2023-02-02T16:54:00.956Z,6.80
2023-02-02T16:56:35.629Z,6.70
2023-02-02T16:59:21.938Z,6.70
2023-02-02T17:01:56.404Z,6.70
2023-02-02T17:04:34.238Z,6.70
2023-02-02T17:07:13.148Z,6.70
2023-02-02T17:09:41.602Z,6.70
2023-02-02T17:12:34.988Z,6.70
2023-02-02T17:15:24.565Z,6.60
2023-02-02T17:17:52.240Z,6.60
2023-02-02T17:20:19.845Z,6.60
2023-02-02T17:22:50.430Z,6.60
2023-02-02T17:25:21.262Z,6.70
2023-02-02T17:27:48.409Z,6.70
2023-02-02T17:30:18.499Z,6.80
2023-02-02T17:32:45.567Z,6.70
2023-02-02T17:35:16.895Z,6.80
2023-02-02T17:37:43.726Z,6.80
2023-02-02T17:40:15.016Z,6.80
2023-02-02T17:42:47.452Z,6.70
2023-02-02T17:45:23.149Z,6.80
2023-02-02T17:47:51.147Z,6.80
2023-02-02T17:50:18.509Z,6.80
2023-02-02T17:52:46.167Z,6.70
2023-02-02T17:55:20.153Z,6.80
2023-02-02T17:57:51.143Z,6.80
2023-02-02T18:00:20.462Z,6.80
2023-02-02T18:02:50.058Z,6.80
2023-02-02T18:05:17.745Z,6.80
2023-02-02T18:07:44.844Z,6.80
2023-02-02T18:10:15.573Z,6.90
2023-02-02T18:12:42.760Z,6.90
2023-02-02T18:15:12.880Z,6.90
2023-02-02T18:17:40.676Z,7.00
2023-02-02T18:20:08.497Z,7.00
2023-02-02T18:22:38.532Z,7.00
2023-02-02T18:25:06.112Z,7.00
2023-02-02T18:27:33.039Z,7.00
2023-02-02T18:29:59.869Z,7.00
2023-02-02T18:32:26.798Z,7.00
2023-02-02T18:34:55.839Z,6.90
2023-02-02T18:37:25.644Z,6.90
2023-02-02T18:39:53.908Z,7.00
2023-02-02T18:42:21.148Z,6.90
2023-02-02T18:44:48.008Z,6.90
2023-02-02T18:47:14.840Z,6.80
2023-02-02T18:49:41.706Z,6.90
2023-02-02T18:52:08.716Z,6.90
2023-02-02T18:54:35.853Z,6.80
2023-02-02T18:57:02.789Z,6.90
2023-02-02T18:59:32.139Z,6.90
2023-02-02T19:01:59.582Z,7.00
2023-02-02T19:04:26.594Z,6.90
2023-02-02T19:07:11.942Z,6.90
2023-02-02T19:09:38.821Z,6.90
2023-02-02T19:12:13.674Z,6.90
2023-02-02T19:14:42.217Z,6.80
2023-02-02T19:17:14.994Z,6.70
2023-02-02T19:19:43.036Z,6.80
2023-02-02T19:22:24.050Z,6.80
2023-02-02T19:24:51.630Z,6.80
2023-02-02T19:27:29.275Z,6.80
2023-02-02T19:30:03.895Z,6.80
2023-02-02T19:32:33.633Z,6.70
2023-02-02T19:35:05.793Z,6.70
2023-02-02T19:37:38.707Z,6.70
2023-02-02T19:40:10.753Z,6.70
2023-02-02T19:42:45.236Z,6.60
2023-02-02T19:45:27.937Z,6.60
2023-02-02T19:47:57.201Z,6.60
2023-02-02T19:50:27.779Z,6.70
2023-02-02T19:52:55.642Z,6.60
2023-02-02T19:55:27.087Z,6.60
2023-02-02T19:58:02.026Z,6.60
2023-02-02T20:00:31.195Z,6.60
2023-02-02T20:02:58.837Z,6.60
2023-02-02T20:05:49.676Z,6.60
2023-02-02T20:08:21.821Z,6.60
2023-02-02T20:10:49.422Z,6.50
2023-02-02T20:13:45.749Z,6.50
2023-02-02T20:16:25.334Z,6.50
2023-02-02T20:18:57.092Z,6.50
